sensor_id;sensor_type;location;lat;lon;timestamp;P1;durP1;ratioP1;P2;durP2;ratioP2
40953;SDS011;26686;50.130;8.710;2022-09-20T00:01:48;3.70;;;1.08;;
40953;SDS011;26686;50.130;8.710;2022-09-20T00:06:50;5.75;;;1.45;;
40953;SDS011;26686;50.130;8.710;2022-09-20T00:11:51;6.50;;;1.15;;
40953;SDS011;26686;50.130;8.710;2022-09-20T00:16:52;4.13;;;1.30;;
40953;SDS011;26686;50.130;8.710;2022-09-20T00:21:54;3.55;;;1.38;;
40953;SDS011;26686;50.130;8.710;2022-09-20T00:26:55;7.28;;;2.75;;
40953;SDS011;26686;50.130;8.710;2022-09-20T00:31:57;5.53;;;1.70;;
40953;SDS011;26686;50.130;8.710;2022-09-20T00:36:58;5.20;;;1.77;;
40953;SDS011;26686;50.130;8.710;2022-09-20T00:41:59;4.63;;;1.48;;
40953;SDS011;26686;50.130;8.710;2022-09-20T00:47:01;6.45;;;2.10;;
40953;SDS011;26686;50.130;8.710;2022-09-20T00:52:03;3.13;;;1.50;;
40953;SDS011;26686;50.130;8.710;2022-09-20T00:57:05;4.00;;;1.50;;
40953;SDS011;26686;50.130;8.710;2022-09-20T01:02:16;3.63;;;1.80;;
40953;SDS011;26686;50.130;8.710;2022-09-20T01:07:20;2.90;;;1.70;;
40953;SDS011;26686;50.130;8.710;2022-09-20T01:12:25;3.53;;;1.63;;
40953;SDS011;26686;50.130;8.710;2022-09-20T01:17:30;5.13;;;2.15;;
40953;SDS011;26686;50.130;8.710;2022-09-20T01:22:44;5.05;;;1.85;;
40953;SDS011;26686;50.130;8.710;2022-09-20T01:27:52;7.95;;;1.65;;
40953;SDS011;26686;50.130;8.710;2022-09-20T01:48:53;6.85;;;2.50;;
40953;SDS011;26686;50.130;8.710;2022-09-20T01:59:30;6.75;;;2.28;;
40953;SDS011;26686;50.130;8.710;2022-09-20T02:15:32;5.22;;;1.98;;
40953;SDS011;26686;50.130;8.710;2022-09-20T02:20:51;5.05;;;2.35;;
40953;SDS011;26686;50.130;8.710;2022-09-20T02:31:24;5.47;;;1.80;;
40953;SDS011;26686;50.130;8.710;2022-09-20T02:36:40;5.45;;;1.83;;
40953;SDS011;26686;50.130;8.710;2022-09-20T02:52:32;5.45;;;2.17;;
40953;SDS011;26686;50.130;8.710;2022-09-20T02:57:54;8.23;;;2.05;;
40953;SDS011;26686;50.130;8.710;2022-09-20T03:09:15;7.05;;;1.90;;
40953;SDS011;26686;50.130;8.710;2022-09-20T03:14:27;5.32;;;2.08;;
40953;SDS011;26686;50.130;8.710;2022-09-20T03:19:52;7.75;;;2.70;;
40953;SDS011;26686;50.130;8.710;2022-09-20T03:41:41;6.32;;;2.42;;
40953;SDS011;26686;50.130;8.710;2022-09-20T03:47:28;3.70;;;2.38;;
40953;SDS011;26686;50.130;8.710;2022-09-20T03:53:05;5.10;;;2.30;;
40953;SDS011;26686;50.130;8.710;2022-09-20T03:58:51;6.05;;;2.25;;
40953;SDS011;26686;50.130;8.710;2022-09-20T04:03:59;8.05;;;2.70;;
40953;SDS011;26686;50.130;8.710;2022-09-20T04:14:44;5.15;;;1.80;;
40953;SDS011;26686;50.130;8.710;2022-09-20T04:20:00;4.95;;;1.95;;
40953;SDS011;26686;50.130;8.710;2022-09-20T04:30:18;10.27;;;3.40;;
40953;SDS011;26686;50.130;8.710;2022-09-20T04:46:28;6.68;;;2.00;;
40953;SDS011;26686;50.130;8.710;2022-09-20T04:57:48;7.82;;;2.80;;
40953;SDS011;26686;50.130;8.710;2022-09-20T05:03:52;5.63;;;2.67;;
40953;SDS011;26686;50.130;8.710;2022-09-20T05:09:48;6.25;;;3.00;;
40953;SDS011;26686;50.130;8.710;2022-09-20T05:14:46;6.25;;;3.22;;
40953;SDS011;26686;50.130;8.710;2022-09-20T05:20:12;7.20;;;2.53;;
40953;SDS011;26686;50.130;8.710;2022-09-20T05:30:54;6.75;;;2.80;;
40953;SDS011;26686;50.130;8.710;2022-09-20T05:36:05;5.68;;;3.38;;
40953;SDS011;26686;50.130;8.710;2022-09-20T06:19:12;7.15;;;5.07;;
40953;SDS011;26686;50.130;8.710;2022-09-20T06:24:24;11.38;;;6.50;;
40953;SDS011;26686;50.130;8.710;2022-09-20T06:29:33;9.27;;;6.45;;
40953;SDS011;26686;50.130;8.710;2022-09-20T06:34:38;12.02;;;6.57;;
40953;SDS011;26686;50.130;8.710;2022-09-20T06:39:42;9.23;;;5.97;;
40953;SDS011;26686;50.130;8.710;2022-09-20T06:45:04;11.25;;;6.22;;
40953;SDS011;26686;50.130;8.710;2022-09-20T06:50:06;9.75;;;6.18;;
40953;SDS011;26686;50.130;8.710;2022-09-20T06:55:17;9.52;;;6.72;;
40953;SDS011;26686;50.130;8.710;2022-09-20T07:00:24;15.02;;;7.45;;
40953;SDS011;26686;50.130;8.710;2022-09-20T07:05:25;12.13;;;6.90;;
40953;SDS011;26686;50.130;8.710;2022-09-20T07:10:27;10.15;;;6.47;;
40953;SDS011;26686;50.130;8.710;2022-09-20T07:15:30;11.65;;;6.47;;
40953;SDS011;26686;50.130;8.710;2022-09-20T07:20:32;9.37;;;6.30;;
40953;SDS011;26686;50.130;8.710;2022-09-20T07:25:34;8.73;;;5.78;;
40953;SDS011;26686;50.130;8.710;2022-09-20T07:30:36;10.10;;;5.55;;
40953;SDS011;26686;50.130;8.710;2022-09-20T07:35:39;11.68;;;5.65;;
40953;SDS011;26686;50.130;8.710;2022-09-20T07:40:41;10.25;;;5.85;;
40953;SDS011;26686;50.130;8.710;2022-09-20T07:45:43;8.25;;;5.55;;
40953;SDS011;26686;50.130;8.710;2022-09-20T07:50:51;9.18;;;4.78;;
40953;SDS011;26686;50.130;8.710;2022-09-20T07:56:08;7.35;;;4.75;;
40953;SDS011;26686;50.130;8.710;2022-09-20T08:01:11;10.80;;;4.80;;
40953;SDS011;26686;50.130;8.710;2022-09-20T08:06:13;7.05;;;3.60;;
40953;SDS011;26686;50.130;8.710;2022-09-20T08:11:17;5.70;;;3.60;;
40953;SDS011;26686;50.130;8.710;2022-09-20T08:16:20;6.30;;;2.97;;
40953;SDS011;26686;50.130;8.710;2022-09-20T08:21:22;7.82;;;2.60;;
40953;SDS011;26686;50.130;8.710;2022-09-20T08:26:25;4.90;;;3.15;;
40953;SDS011;26686;50.130;8.710;2022-09-20T08:31:28;5.90;;;2.47;;
40953;SDS011;26686;50.130;8.710;2022-09-20T08:36:37;4.40;;;2.40;;
40953;SDS011;26686;50.130;8.710;2022-09-20T08:41:42;4.38;;;1.98;;
40953;SDS011;26686;50.130;8.710;2022-09-20T08:46:49;5.47;;;2.15;;
40953;SDS011;26686;50.130;8.710;2022-09-20T08:51:55;4.43;;;2.45;;
40953;SDS011;26686;50.130;8.710;2022-09-20T08:57:19;3.67;;;2.03;;
40953;SDS011;26686;50.130;8.710;2022-09-20T09:02:20;6.32;;;2.72;;
40953;SDS011;26686;50.130;8.710;2022-09-20T09:07:22;6.53;;;3.00;;
40953;SDS011;26686;50.130;8.710;2022-09-20T09:12:26;4.68;;;2.40;;
40953;SDS011;26686;50.130;8.710;2022-09-20T09:17:30;5.97;;;2.92;;
40953;SDS011;26686;50.130;8.710;2022-09-20T09:27:51;4.90;;;2.03;;
40953;SDS011;26686;50.130;8.710;2022-09-20T09:33:13;5.28;;;2.25;;
40953;SDS011;26686;50.130;8.710;2022-09-20T09:38:29;6.13;;;1.92;;
40953;SDS011;26686;50.130;8.710;2022-09-20T09:43:32;3.80;;;1.30;;
40953;SDS011;26686;50.130;8.710;2022-09-20T09:48:37;4.97;;;1.05;;
40953;SDS011;26686;50.130;8.710;2022-09-20T09:53:40;3.92;;;1.15;;
40953;SDS011;26686;50.130;8.710;2022-09-20T10:04:01;5.80;;;2.03;;
40953;SDS011;26686;50.130;8.710;2022-09-20T10:19:55;8.20;;;1.77;;
40953;SDS011;26686;50.130;8.710;2022-09-20T10:31:04;3.00;;;1.55;;
40953;SDS011;26686;50.130;8.710;2022-09-20T10:36:20;2.67;;;1.25;;
40953;SDS011;26686;50.130;8.710;2022-09-20T10:53:24;3.53;;;1.13;;
40953;SDS011;26686;50.130;8.710;2022-09-20T11:09:28;2.35;;;0.90;;
40953;SDS011;26686;50.130;8.710;2022-09-20T11:20:16;2.83;;;1.02;;
40953;SDS011;26686;50.130;8.710;2022-09-20T11:31:02;2.85;;;1.40;;
40953;SDS011;26686;50.130;8.710;2022-09-20T11:36:13;3.20;;;0.90;;
40953;SDS011;26686;50.130;8.710;2022-09-20T11:46:30;4.10;;;0.90;;
40953;SDS011;26686;50.130;8.710;2022-09-20T11:57:15;2.63;;;0.90;;
40953;SDS011;26686;50.130;8.710;2022-09-20T12:07:43;2.45;;;0.85;;
40953;SDS011;26686;50.130;8.710;2022-09-20T12:12:47;2.25;;;0.65;;
40953;SDS011;26686;50.130;8.710;2022-09-20T12:28:43;2.95;;;0.50;;
40953;SDS011;26686;50.130;8.710;2022-09-20T12:55:05;2.50;;;1.10;;
40953;SDS011;26686;50.130;8.710;2022-09-20T13:00:26;4.25;;;1.10;;
40953;SDS011;26686;50.130;8.710;2022-09-20T13:05:39;4.78;;;1.10;;
40953;SDS011;26686;50.130;8.710;2022-09-20T13:10:44;2.80;;;0.77;;
40953;SDS011;26686;50.130;8.710;2022-09-20T13:15:50;3.58;;;0.90;;
40953;SDS011;26686;50.130;8.710;2022-09-20T13:20:54;4.18;;;0.80;;
40953;SDS011;26686;50.130;8.710;2022-09-20T13:25:56;2.45;;;0.93;;
40953;SDS011;26686;50.130;8.710;2022-09-20T13:31:41;3.45;;;0.82;;
40953;SDS011;26686;50.130;8.710;2022-09-20T13:36:27;2.35;;;0.50;;
40953;SDS011;26686;50.130;8.710;2022-09-20T13:41:30;2.67;;;1.02;;
40953;SDS011;26686;50.130;8.710;2022-09-20T13:46:32;4.15;;;0.80;;
40953;SDS011;26686;50.130;8.710;2022-09-20T13:51:34;2.33;;;1.02;;
40953;SDS011;26686;50.130;8.710;2022-09-20T14:01:37;2.50;;;0.90;;
40953;SDS011;26686;50.130;8.710;2022-09-20T14:06:44;2.78;;;1.02;;
40953;SDS011;26686;50.130;8.710;2022-09-20T14:11:45;3.83;;;1.08;;
40953;SDS011;26686;50.130;8.710;2022-09-20T14:16:47;2.67;;;1.13;;
40953;SDS011;26686;50.130;8.710;2022-09-20T14:21:50;2.33;;;0.90;;
40953;SDS011;26686;50.130;8.710;2022-09-20T14:26:59;5.00;;;1.08;;
40953;SDS011;26686;50.130;8.710;2022-09-20T14:32:05;2.55;;;1.00;;
40953;SDS011;26686;50.130;8.710;2022-09-20T14:42:41;3.00;;;1.10;;
40953;SDS011;26686;50.130;8.710;2022-09-20T14:52:59;3.00;;;0.90;;
40953;SDS011;26686;50.130;8.710;2022-09-20T14:58:21;2.55;;;0.80;;
40953;SDS011;26686;50.130;8.710;2022-09-20T15:03:28;2.35;;;0.73;;
40953;SDS011;26686;50.130;8.710;2022-09-20T15:08:33;2.80;;;0.68;;
40953;SDS011;26686;50.130;8.710;2022-09-20T15:13:35;3.55;;;1.30;;
40953;SDS011;26686;50.130;8.710;2022-09-20T15:18:40;1.70;;;0.70;;
40953;SDS011;26686;50.130;8.710;2022-09-20T15:23:42;1.10;;;0.70;;
40953;SDS011;26686;50.130;8.710;2022-09-20T15:28:44;2.42;;;0.90;;
40953;SDS011;26686;50.130;8.710;2022-09-20T15:33:45;2.55;;;0.68;;
40953;SDS011;26686;50.130;8.710;2022-09-20T15:38:46;2.10;;;0.50;;
40953;SDS011;26686;50.130;8.710;2022-09-20T15:43:48;1.00;;;0.60;;
40953;SDS011;26686;50.130;8.710;2022-09-20T15:48:50;1.90;;;0.40;;
40953;SDS011;26686;50.130;8.710;2022-09-20T15:53:55;1.63;;;0.70;;
40953;SDS011;26686;50.130;8.710;2022-09-20T15:59:02;2.05;;;0.50;;
40953;SDS011;26686;50.130;8.710;2022-09-20T16:04:05;2.42;;;0.77;;
40953;SDS011;26686;50.130;8.710;2022-09-20T16:09:09;3.20;;;0.43;;
40953;SDS011;26686;50.130;8.710;2022-09-20T16:14:10;2.00;;;0.25;;
40953;SDS011;26686;50.130;8.710;2022-09-20T16:19:12;1.95;;;0.50;;
40953;SDS011;26686;50.130;8.710;2022-09-20T16:24:22;2.90;;;0.45;;
40953;SDS011;26686;50.130;8.710;2022-09-20T16:29:26;2.10;;;0.50;;
40953;SDS011;26686;50.130;8.710;2022-09-20T16:34:31;1.55;;;0.57;;
40953;SDS011;26686;50.130;8.710;2022-09-20T16:39:34;1.20;;;0.40;;
40953;SDS011;26686;50.130;8.710;2022-09-20T16:44:37;1.80;;;0.77;;
40953;SDS011;26686;50.130;8.710;2022-09-20T16:49:39;1.23;;;0.80;;
40953;SDS011;26686;50.130;8.710;2022-09-20T16:54:41;3.58;;;0.70;;
40953;SDS011;26686;50.130;8.710;2022-09-20T16:59:42;1.83;;;0.85;;
40953;SDS011;26686;50.130;8.710;2022-09-20T17:04:44;2.40;;;0.70;;
40953;SDS011;26686;50.130;8.710;2022-09-20T17:09:45;2.30;;;0.80;;
40953;SDS011;26686;50.130;8.710;2022-09-20T17:14:47;3.03;;;0.70;;
40953;SDS011;26686;50.130;8.710;2022-09-20T17:19:48;3.67;;;1.08;;
40953;SDS011;26686;50.130;8.710;2022-09-20T17:24:49;2.28;;;0.98;;
40953;SDS011;26686;50.130;8.710;2022-09-20T17:29:51;1.77;;;0.50;;
40953;SDS011;26686;50.130;8.710;2022-09-20T17:34:52;3.47;;;0.90;;
40953;SDS011;26686;50.130;8.710;2022-09-20T17:39:53;0.85;;;0.47;;
40953;SDS011;26686;50.130;8.710;2022-09-20T17:44:54;2.65;;;0.77;;
40953;SDS011;26686;50.130;8.710;2022-09-20T17:49:56;3.00;;;0.90;;
40953;SDS011;26686;50.130;8.710;2022-09-20T17:54:57;1.45;;;0.57;;
40953;SDS011;26686;50.130;8.710;2022-09-20T17:59:58;1.83;;;1.08;;
40953;SDS011;26686;50.130;8.710;2022-09-20T18:04:59;2.53;;;1.05;;
40953;SDS011;26686;50.130;8.710;2022-09-20T18:10:01;1.85;;;0.98;;
40953;SDS011;26686;50.130;8.710;2022-09-20T18:15:02;3.78;;;1.20;;
40953;SDS011;26686;50.130;8.710;2022-09-20T18:20:04;1.65;;;0.80;;
40953;SDS011;26686;50.130;8.710;2022-09-20T18:25:06;2.78;;;1.10;;
40953;SDS011;26686;50.130;8.710;2022-09-20T18:30:08;2.65;;;1.25;;
40953;SDS011;26686;50.130;8.710;2022-09-20T18:35:09;1.45;;;0.60;;
40953;SDS011;26686;50.130;8.710;2022-09-20T18:40:11;3.05;;;0.70;;
40953;SDS011;26686;50.130;8.710;2022-09-20T18:45:12;3.25;;;2.05;;
40953;SDS011;26686;50.130;8.710;2022-09-20T18:50:14;5.80;;;4.80;;
40953;SDS011;26686;50.130;8.710;2022-09-20T18:55:15;5.63;;;4.68;;
40953;SDS011;26686;50.130;8.710;2022-09-20T19:00:17;3.33;;;1.58;;
40953;SDS011;26686;50.130;8.710;2022-09-20T19:05:20;2.72;;;1.10;;
40953;SDS011;26686;50.130;8.710;2022-09-20T19:10:45;2.95;;;1.33;;
40953;SDS011;26686;50.130;8.710;2022-09-20T19:15:51;3.40;;;0.85;;
40953;SDS011;26686;50.130;8.710;2022-09-20T19:26:18;2.92;;;1.25;;
40953;SDS011;26686;50.130;8.710;2022-09-20T19:31:24;3.28;;;1.45;;
40953;SDS011;26686;50.130;8.710;2022-09-20T19:36:45;2.63;;;1.33;;
40953;SDS011;26686;50.130;8.710;2022-09-20T19:47:26;3.25;;;1.83;;
40953;SDS011;26686;50.130;8.710;2022-09-20T19:52:39;3.03;;;1.17;;
40953;SDS011;26686;50.130;8.710;2022-09-20T19:57:42;3.05;;;1.17;;
40953;SDS011;26686;50.130;8.710;2022-09-20T20:02:47;2.88;;;1.20;;
40953;SDS011;26686;50.130;8.710;2022-09-20T20:13:15;2.88;;;1.08;;
40953;SDS011;26686;50.130;8.710;2022-09-20T20:24:23;4.72;;;1.23;;
40953;SDS011;26686;50.130;8.710;2022-09-20T20:29:25;4.38;;;1.10;;
40953;SDS011;26686;50.130;8.710;2022-09-20T20:34:27;2.08;;;1.15;;
40953;SDS011;26686;50.130;8.710;2022-09-20T20:39:28;4.57;;;1.27;;
40953;SDS011;26686;50.130;8.710;2022-09-20T20:44:32;2.72;;;1.77;;
40953;SDS011;26686;50.130;8.710;2022-09-20T20:49:36;3.97;;;2.20;;
40953;SDS011;26686;50.130;8.710;2022-09-20T20:54:38;7.10;;;3.33;;
40953;SDS011;26686;50.130;8.710;2022-09-20T20:59:40;5.32;;;2.95;;
40953;SDS011;26686;50.130;8.710;2022-09-20T21:04:41;3.13;;;2.60;;
40953;SDS011;26686;50.130;8.710;2022-09-20T21:09:42;4.10;;;2.55;;
40953;SDS011;26686;50.130;8.710;2022-09-20T21:14:44;4.60;;;2.20;;
40953;SDS011;26686;50.130;8.710;2022-09-20T21:19:45;3.47;;;2.28;;
40953;SDS011;26686;50.130;8.710;2022-09-20T21:24:46;4.35;;;2.90;;
40953;SDS011;26686;50.130;8.710;2022-09-20T21:29:48;4.70;;;2.47;;
40953;SDS011;26686;50.130;8.710;2022-09-20T21:34:49;11.48;;;9.05;;
40953;SDS011;26686;50.130;8.710;2022-09-20T21:39:50;7.32;;;5.60;;
40953;SDS011;26686;50.130;8.710;2022-09-20T21:44:54;5.83;;;3.80;;
40953;SDS011;26686;50.130;8.710;2022-09-20T21:49:56;3.65;;;2.97;;
40953;SDS011;26686;50.130;8.710;2022-09-20T21:54:57;5.38;;;3.40;;
40953;SDS011;26686;50.130;8.710;2022-09-20T21:59:59;6.25;;;3.60;;
40953;SDS011;26686;50.130;8.710;2022-09-20T22:05:00;4.18;;;2.63;;
40953;SDS011;26686;50.130;8.710;2022-09-20T22:10:02;4.68;;;2.60;;
40953;SDS011;26686;50.130;8.710;2022-09-20T22:15:04;4.97;;;3.08;;
40953;SDS011;26686;50.130;8.710;2022-09-20T22:20:06;5.75;;;2.35;;
40953;SDS011;26686;50.130;8.710;2022-09-20T22:25:08;3.70;;;2.30;;
40953;SDS011;26686;50.130;8.710;2022-09-20T22:30:09;3.03;;;2.30;;
40953;SDS011;26686;50.130;8.710;2022-09-20T22:35:13;3.25;;;2.63;;
40953;SDS011;26686;50.130;8.710;2022-09-20T22:40:14;4.22;;;2.75;;
40953;SDS011;26686;50.130;8.710;2022-09-20T22:45:15;5.60;;;3.05;;
40953;SDS011;26686;50.130;8.710;2022-09-20T22:50:17;5.13;;;3.00;;
40953;SDS011;26686;50.130;8.710;2022-09-20T22:55:18;4.93;;;3.15;;
40953;SDS011;26686;50.130;8.710;2022-09-20T23:00:19;6.35;;;3.20;;
40953;SDS011;26686;50.130;8.710;2022-09-20T23:05:21;5.40;;;3.47;;
40953;SDS011;26686;50.130;8.710;2022-09-20T23:10:22;7.28;;;3.60;;
40953;SDS011;26686;50.130;8.710;2022-09-20T23:15:24;4.82;;;3.67;;
40953;SDS011;26686;50.130;8.710;2022-09-20T23:20:25;5.63;;;3.88;;
40953;SDS011;26686;50.130;8.710;2022-09-20T23:25:26;4.65;;;3.55;;
40953;SDS011;26686;50.130;8.710;2022-09-20T23:30:28;5.07;;;3.97;;
40953;SDS011;26686;50.130;8.710;2022-09-20T23:35:31;6.13;;;3.80;;
40953;SDS011;26686;50.130;8.710;2022-09-20T23:40:34;5.43;;;3.30;;
40953;SDS011;26686;50.130;8.710;2022-09-20T23:45:35;4.10;;;2.80;;
40953;SDS011;26686;50.130;8.710;2022-09-20T23:50:36;6.13;;;3.22;;
40953;SDS011;26686;50.130;8.710;2022-09-20T23:55:38;4.85;;;3.03;;
